Terminal Aerodrome Forecast
Issued by NWS

Home | Current Version | Previous Version | Graphics & Text | Print | Product List | Glossary On
Versions: 1 2 3 4 5 6 7 8 9 10 11 12 13 14 15 16 17 18 19 20
000
FTUS41 KCLE 171100
TAFFDY
TAF
KFDY 171133Z 1712/1812 24004KT 4SM BR SCT030 OVC060
     FM171400 06005KT P6SM VCSH SCT025 OVC035
     FM171800 06005KT P6SM SCT035 OVC045
     FM180300 08005KT P6SM OVC035
     FM181100 07004KT 4SM BR BKN006 OVC020=

USA.gov is the U.S. government's official web portal to all federal, state and local government web resources and services.